sensor_id;sensor_type;location;lat;lon;timestamp;pressure;altitude;pressure_sealevel;temperature
32039;BMP280;18549;42.286;22.688;2022-12-29T00:01:03;96586.06;;;10.05
32039;BMP280;18549;42.286;22.688;2022-12-29T00:03:30;96585.16;;;10.06
32039;BMP280;18549;42.286;22.688;2022-12-29T00:05:58;96582.69;;;10.06
32039;BMP280;18549;42.286;22.688;2022-12-29T00:08:26;96576.94;;;10.05
32039;BMP280;18549;42.286;22.688;2022-12-29T00:11:05;96581.91;;;10.05
32039;BMP280;18549;42.286;22.688;2022-12-29T00:13:32;96581.94;;;10.04
32039;BMP280;18549;42.286;22.688;2022-12-29T00:16:16;96581.94;;;10.04
32039;BMP280;18549;42.286;22.688;2022-12-29T00:18:43;96586.06;;;10.05
32039;BMP280;18549;42.286;22.688;2022-12-29T00:21:13;96580.34;;;10.03
32039;BMP280;18549;42.286;22.688;2022-12-29T00:23:57;96591.22;;;10.00
32039;BMP280;18549;42.286;22.688;2022-12-29T00:26:41;96601.19;;;9.99
32039;BMP280;18549;42.286;22.688;2022-12-29T00:29:26;96605.41;;;9.97
32039;BMP280;18549;42.286;22.688;2022-12-29T00:32:10;96601.37;;;9.94
32039;BMP280;18549;42.286;22.688;2022-12-29T00:34:54;96613.03;;;9.92
32039;BMP280;18549;42.286;22.688;2022-12-29T00:37:40;96614.81;;;9.90
32039;BMP280;18549;42.286;22.688;2022-12-29T00:40:25;96616.63;;;9.86
32039;BMP280;18549;42.286;22.688;2022-12-29T00:43:09;96624.94;;;9.85
32039;BMP280;18549;42.286;22.688;2022-12-29T00:45:54;96618.38;;;9.84
32039;BMP280;18549;42.286;22.688;2022-12-29T00:48:21;96615.09;;;9.83
32039;BMP280;18549;42.286;22.688;2022-12-29T00:51:02;96622.53;;;9.83
32039;BMP280;18549;42.286;22.688;2022-12-29T00:53:30;96620.19;;;9.80
32039;BMP280;18549;42.286;22.688;2022-12-29T00:55:57;96621.97;;;9.77
32039;BMP280;18549;42.286;22.688;2022-12-29T00:58:26;96627.97;;;9.73
32039;BMP280;18549;42.286;22.688;2022-12-29T01:01:00;96632.13;;;9.72
32039;BMP280;18549;42.286;22.688;2022-12-29T01:03:27;96633.03;;;9.70
32039;BMP280;18549;42.286;22.688;2022-12-29T01:05:54;96638.22;;;9.65
32039;BMP280;18549;42.286;22.688;2022-12-29T01:08:21;96623.56;;;9.61
32039;BMP280;18549;42.286;22.688;2022-12-29T01:10:58;96633.66;;;9.56
32039;BMP280;18549;42.286;22.688;2022-12-29T01:13:24;96632.97;;;9.53
32039;BMP280;18549;42.286;22.688;2022-12-29T01:15:51;96631.50;;;9.49
32039;BMP280;18549;42.286;22.688;2022-12-29T01:18:18;96617.66;;;9.45
32039;BMP280;18549;42.286;22.688;2022-12-29T01:20:45;96620.12;;;9.45
32039;BMP280;18549;42.286;22.688;2022-12-29T01:23:12;96622.53;;;9.47
32039;BMP280;18549;42.286;22.688;2022-12-29T01:25:38;96616.78;;;9.46
32039;BMP280;18549;42.286;22.688;2022-12-29T01:28:07;96607.75;;;9.45
32039;BMP280;18549;42.286;22.688;2022-12-29T01:30:34;96611.97;;;9.43
32039;BMP280;18549;42.286;22.688;2022-12-29T01:33:01;96604.69;;;9.40
32039;BMP280;18549;42.286;22.688;2022-12-29T01:35:28;96597.38;;;9.37
32039;BMP280;18549;42.286;22.688;2022-12-29T01:37:55;96586.69;;;9.37
32039;BMP280;18549;42.286;22.688;2022-12-29T01:40:22;96594.31;;;9.32
32039;BMP280;18549;42.286;22.688;2022-12-29T01:42:48;96592.78;;;9.30
32039;BMP280;18549;42.286;22.688;2022-12-29T01:45:17;96592.09;;;9.26
32039;BMP280;18549;42.286;22.688;2022-12-29T01:47:47;96590.34;;;9.28
32039;BMP280;18549;42.286;22.688;2022-12-29T01:50:21;96584.66;;;9.26
32039;BMP280;18549;42.286;22.688;2022-12-29T01:52:52;96591.47;;;9.21
32039;BMP280;18549;42.286;22.688;2022-12-29T01:55:21;96587.47;;;9.19
32039;BMP280;18549;42.286;22.688;2022-12-29T01:57:51;96592.56;;;9.16
32039;BMP280;18549;42.286;22.688;2022-12-29T02:00:21;96592.69;;;9.13
32039;BMP280;18549;42.286;22.688;2022-12-29T02:02:50;96594.44;;;9.11
32039;BMP280;18549;42.286;22.688;2022-12-29T02:05:23;96594.44;;;9.11
32039;BMP280;18549;42.286;22.688;2022-12-29T02:07:52;96595.38;;;9.09
32039;BMP280;18549;42.286;22.688;2022-12-29T02:10:20;96583.06;;;9.07
32039;BMP280;18549;42.286;22.688;2022-12-29T02:12:47;96581.47;;;9.06
32039;BMP280;18549;42.286;22.688;2022-12-29T02:15:15;96585.91;;;8.98
32039;BMP280;18549;42.286;22.688;2022-12-29T02:17:57;96578.22;;;8.86
32039;BMP280;18549;42.286;22.688;2022-12-29T02:23:47;96585.63;;;8.86
32039;BMP280;18549;42.286;22.688;2022-12-29T02:29:26;96566.19;;;8.79
32039;BMP280;18549;42.286;22.688;2022-12-29T02:32:04;96568.19;;;8.69
32039;BMP280;18549;42.286;22.688;2022-12-29T02:34:41;96560.91;;;8.66
32039;BMP280;18549;42.286;22.688;2022-12-29T02:37:17;96563.19;;;8.71
32039;BMP280;18549;42.286;22.688;2022-12-29T02:39:50;96553.31;;;8.71
32039;BMP280;18549;42.286;22.688;2022-12-29T02:42:24;96560.53;;;8.75
32039;BMP280;18549;42.286;22.688;2022-12-29T02:44:56;96556.47;;;8.74
32039;BMP280;18549;42.286;22.688;2022-12-29T02:47:36;96561.28;;;8.77
32039;BMP280;18549;42.286;22.688;2022-12-29T02:50:08;96564.81;;;8.72
32039;BMP280;18549;42.286;22.688;2022-12-29T02:52:42;96559.06;;;8.71
32039;BMP280;18549;42.286;22.688;2022-12-29T02:55:10;96565.66;;;8.71
32039;BMP280;18549;42.286;22.688;2022-12-29T02:57:36;96561.66;;;8.68
32039;BMP280;18549;42.286;22.688;2022-12-29T03:00:06;96564.13;;;8.68
32039;BMP280;18549;42.286;22.688;2022-12-29T03:02:51;96556.72;;;8.68
32039;BMP280;18549;42.286;22.688;2022-12-29T03:05:48;96552.50;;;8.70
32039;BMP280;18549;42.286;22.688;2022-12-29T03:08:26;96556.56;;;8.71
32039;BMP280;18549;42.286;22.688;2022-12-29T03:10:59;96555.78;;;8.71
32039;BMP280;18549;42.286;22.688;2022-12-29T03:13:35;96561.59;;;8.70
32039;BMP280;18549;42.286;22.688;2022-12-29T03:16:22;96568.19;;;8.69
32039;BMP280;18549;42.286;22.688;2022-12-29T03:18:57;96565.00;;;8.67
32039;BMP280;18549;42.286;22.688;2022-12-29T03:21:31;96565.84;;;8.66
32039;BMP280;18549;42.286;22.688;2022-12-29T03:24:19;96562.53;;;8.67
32039;BMP280;18549;42.286;22.688;2022-12-29T03:26:47;96555.84;;;8.69
32039;BMP280;18549;42.286;22.688;2022-12-29T03:29:16;96555.13;;;8.67
32039;BMP280;18549;42.286;22.688;2022-12-29T03:31:44;96556.03;;;8.65
32039;BMP280;18549;42.286;22.688;2022-12-29T03:34:13;96556.09;;;8.63
32039;BMP280;18549;42.286;22.688;2022-12-29T03:36:47;96555.41;;;8.60
32039;BMP280;18549;42.286;22.688;2022-12-29T03:39:14;96554.00;;;8.55
32039;BMP280;18549;42.286;22.688;2022-12-29T03:41:44;96564.75;;;8.54
32039;BMP280;18549;42.286;22.688;2022-12-29T03:44:12;96560.62;;;8.54
32039;BMP280;18549;42.286;22.688;2022-12-29T03:46:39;96564.75;;;8.54
32039;BMP280;18549;42.286;22.688;2022-12-29T03:49:06;96558.94;;;8.55
32039;BMP280;18549;42.286;22.688;2022-12-29T03:51:34;96563.16;;;8.53
32039;BMP280;18549;42.286;22.688;2022-12-29T03:54:01;96574.00;;;8.49
32039;BMP280;18549;42.286;22.688;2022-12-29T03:56:28;96570.00;;;8.46
32039;BMP280;18549;42.286;22.688;2022-12-29T03:58:55;96573.16;;;8.50
32039;BMP280;18549;42.286;22.688;2022-12-29T04:01:21;96578.84;;;8.52
32039;BMP280;18549;42.286;22.688;2022-12-29T04:03:48;96579.59;;;8.54
32039;BMP280;18549;42.286;22.688;2022-12-29T04:06:15;96574.66;;;8.54
32039;BMP280;18549;42.286;22.688;2022-12-29T04:08:43;96578.75;;;8.53
32039;BMP280;18549;42.286;22.688;2022-12-29T04:11:10;96578.91;;;8.50
32039;BMP280;18549;42.286;22.688;2022-12-29T04:13:36;96577.34;;;8.48
32039;BMP280;18549;42.286;22.688;2022-12-29T04:16:06;96581.56;;;8.46
32039;BMP280;18549;42.286;22.688;2022-12-29T04:18:33;96575.94;;;8.42
32039;BMP280;18549;42.286;22.688;2022-12-29T04:21:00;96573.56;;;8.39
32039;BMP280;18549;42.286;22.688;2022-12-29T04:23:28;96575.94;;;8.42
32039;BMP280;18549;42.286;22.688;2022-12-29T04:25:57;96579.13;;;8.44
32039;BMP280;18549;42.286;22.688;2022-12-29T04:28:24;96577.41;;;8.46
32039;BMP280;18549;42.286;22.688;2022-12-29T04:30:50;96579.81;;;8.48
32039;BMP280;18549;42.286;22.688;2022-12-29T04:33:17;96586.31;;;8.50
32039;BMP280;18549;42.286;22.688;2022-12-29T04:35:44;96595.22;;;8.54
32039;BMP280;18549;42.286;22.688;2022-12-29T04:38:11;96592.63;;;8.57
32039;BMP280;18549;42.286;22.688;2022-12-29T04:40:39;96595.88;;;8.57
32039;BMP280;18549;42.286;22.688;2022-12-29T04:43:08;96592.56;;;8.58
32039;BMP280;18549;42.286;22.688;2022-12-29T04:45:35;96595.78;;;8.60
32039;BMP280;18549;42.286;22.688;2022-12-29T04:48:02;96592.47;;;8.60
32039;BMP280;18549;42.286;22.688;2022-12-29T04:50:29;96592.56;;;8.58
32039;BMP280;18549;42.286;22.688;2022-12-29T04:52:55;96597.38;;;8.61
32039;BMP280;18549;42.286;22.688;2022-12-29T04:55:22;96593.22;;;8.62
32039;BMP280;18549;42.286;22.688;2022-12-29T04:57:49;96590.72;;;8.63
32039;BMP280;18549;42.286;22.688;2022-12-29T05:00:17;96592.28;;;8.64
32039;BMP280;18549;42.286;22.688;2022-12-29T05:02:44;96594.03;;;8.62
32039;BMP280;18549;42.286;22.688;2022-12-29T05:05:11;96598.97;;;8.62
32039;BMP280;18549;42.286;22.688;2022-12-29T05:07:38;96603.19;;;8.60
32039;BMP280;18549;42.286;22.688;2022-12-29T05:10:06;96602.31;;;8.61
32039;BMP280;18549;42.286;22.688;2022-12-29T05:12:35;96607.25;;;8.61
32039;BMP280;18549;42.286;22.688;2022-12-29T05:15:03;96606.34;;;8.64
32039;BMP280;18549;42.286;22.688;2022-12-29T05:20:45;96607.38;;;8.58
32039;BMP280;18549;42.286;22.688;2022-12-29T05:23:12;96609.13;;;8.56
32039;BMP280;18549;42.286;22.688;2022-12-29T05:25:39;96609.13;;;8.56
32039;BMP280;18549;42.286;22.688;2022-12-29T05:28:06;96612.44;;;8.55
32039;BMP280;18549;42.286;22.688;2022-12-29T05:30:32;96611.72;;;8.54
32039;BMP280;18549;42.286;22.688;2022-12-29T05:32:59;96615.00;;;8.54
32039;BMP280;18549;42.286;22.688;2022-12-29T05:35:26;96610.88;;;8.53
32039;BMP280;18549;42.286;22.688;2022-12-29T05:37:54;96615.03;;;8.53
32039;BMP280;18549;42.286;22.688;2022-12-29T05:40:21;96618.38;;;8.52
32039;BMP280;18549;42.286;22.688;2022-12-29T05:42:48;96622.44;;;8.53
32039;BMP280;18549;42.286;22.688;2022-12-29T05:45:15;96620.72;;;8.55
32039;BMP280;18549;42.286;22.688;2022-12-29T05:47:41;96618.31;;;8.53
32039;BMP280;18549;42.286;22.688;2022-12-29T05:50:08;96618.38;;;8.52
32039;BMP280;18549;42.286;22.688;2022-12-29T05:52:44;96619.97;;;8.53
32039;BMP280;18549;42.286;22.688;2022-12-29T05:55:12;96625.06;;;8.50
32039;BMP280;18549;42.286;22.688;2022-12-29T05:57:40;96616.00;;;8.49
32039;BMP280;18549;42.286;22.688;2022-12-29T06:00:08;96620.84;;;8.52
32039;BMP280;18549;42.286;22.688;2022-12-29T06:02:35;96622.56;;;8.50
32039;BMP280;18549;42.286;22.688;2022-12-29T06:05:01;96622.56;;;8.50
32039;BMP280;18549;42.286;22.688;2022-12-29T06:07:28;96621.69;;;8.51
32039;BMP280;18549;42.286;22.688;2022-12-29T06:09:55;96619.97;;;8.53
32039;BMP280;18549;42.286;22.688;2022-12-29T06:12:23;96633.09;;;8.55
32039;BMP280;18549;42.286;22.688;2022-12-29T06:14:50;96629.00;;;8.54
32039;BMP280;18549;42.286;22.688;2022-12-29T06:17:17;96628.25;;;8.52
32039;BMP280;18549;42.286;22.688;2022-12-29T06:19:43;96629.81;;;8.54
32039;BMP280;18549;42.286;22.688;2022-12-29T06:22:10;96634.81;;;8.53
32039;BMP280;18549;42.286;22.688;2022-12-29T06:24:38;96629.88;;;8.53
32039;BMP280;18549;42.286;22.688;2022-12-29T06:27:05;96638.16;;;8.52
32039;BMP280;18549;42.286;22.688;2022-12-29T06:29:33;96637.41;;;8.50
32039;BMP280;18549;42.286;22.688;2022-12-29T06:32:02;96635.78;;;8.49
32039;BMP280;18549;42.286;22.688;2022-12-29T06:34:29;96643.28;;;8.47
32039;BMP280;18549;42.286;22.688;2022-12-29T06:36:56;96640.06;;;8.45
32039;BMP280;18549;42.286;22.688;2022-12-29T06:39:22;96654.13;;;8.43
32039;BMP280;18549;42.286;22.688;2022-12-29T06:41:52;96651.62;;;8.45
32039;BMP280;18549;42.286;22.688;2022-12-29T06:44:18;96656.47;;;8.46
32039;BMP280;18549;42.286;22.688;2022-12-29T06:46:47;96655.53;;;8.49
32039;BMP280;18549;42.286;22.688;2022-12-29T06:49:14;96656.41;;;8.48
32039;BMP280;18549;42.286;22.688;2022-12-29T06:51:40;96661.41;;;8.46
32039;BMP280;18549;42.286;22.688;2022-12-29T06:54:07;96660.56;;;8.47
32039;BMP280;18549;42.286;22.688;2022-12-29T06:56:34;96654.78;;;8.47
32039;BMP280;18549;42.286;22.688;2022-12-29T06:59:01;96657.28;;;8.47
32039;BMP280;18549;42.286;22.688;2022-12-29T07:01:28;96654.78;;;8.47
32039;BMP280;18549;42.286;22.688;2022-12-29T07:03:56;96658.91;;;8.48
32039;BMP280;18549;42.286;22.688;2022-12-29T07:06:23;96661.25;;;8.51
32039;BMP280;18549;42.286;22.688;2022-12-29T07:08:50;96667.06;;;8.50
32039;BMP280;18549;42.286;22.688;2022-12-29T07:11:20;96667.84;;;8.50
32039;BMP280;18549;42.286;22.688;2022-12-29T07:13:47;96671.13;;;8.51
32039;BMP280;18549;42.286;22.688;2022-12-29T07:16:13;96677.75;;;8.50
32039;BMP280;18549;42.286;22.688;2022-12-29T07:18:40;96687.50;;;8.53
32039;BMP280;18549;42.286;22.688;2022-12-29T07:21:08;96679.25;;;8.54
32039;BMP280;18549;42.286;22.688;2022-12-29T07:23:35;96682.31;;;8.59
32039;BMP280;18549;42.286;22.688;2022-12-29T07:26:04;96679.81;;;8.60
32039;BMP280;18549;42.286;22.688;2022-12-29T07:28:31;96678.06;;;8.62
32039;BMP280;18549;42.286;22.688;2022-12-29T07:30:58;96689.44;;;8.66
32039;BMP280;18549;42.286;22.688;2022-12-29T07:33:27;96675.34;;;8.68
32039;BMP280;18549;42.286;22.688;2022-12-29T07:35:54;96678.56;;;8.70
32039;BMP280;18549;42.286;22.688;2022-12-29T07:38:22;96684.25;;;8.72
32039;BMP280;18549;42.286;22.688;2022-12-29T07:40:49;96688.41;;;8.72
32039;BMP280;18549;42.286;22.688;2022-12-29T07:43:16;96685.84;;;8.73
32039;BMP280;18549;42.286;22.688;2022-12-29T07:45:43;96687.59;;;8.71
32039;BMP280;18549;42.286;22.688;2022-12-29T07:48:09;96686.00;;;8.70
32039;BMP280;18549;42.286;22.688;2022-12-29T07:50:36;96683.38;;;8.73
32039;BMP280;18549;42.286;22.688;2022-12-29T07:53:03;96679.31;;;8.72
32039;BMP280;18549;42.286;22.688;2022-12-29T07:55:31;96674.38;;;8.72
32039;BMP280;18549;42.286;22.688;2022-12-29T07:57:58;96685.72;;;8.76
32039;BMP280;18549;42.286;22.688;2022-12-29T08:00:25;96684.84;;;8.79
32039;BMP280;18549;42.286;22.688;2022-12-29T08:02:52;96679.41;;;8.69
32039;BMP280;18549;42.286;22.688;2022-12-29T08:05:19;96683.88;;;8.61
32039;BMP280;18549;42.286;22.688;2022-12-29T08:07:46;96680.47;;;8.64
32039;BMP280;18549;42.286;22.688;2022-12-29T08:10:14;96680.28;;;8.68
32039;BMP280;18549;42.286;22.688;2022-12-29T08:12:43;96681.72;;;8.74
32039;BMP280;18549;42.286;22.688;2022-12-29T08:15:11;96678.22;;;8.79
32039;BMP280;18549;42.286;22.688;2022-12-29T08:17:38;96683.78;;;8.84
32039;BMP280;18549;42.286;22.688;2022-12-29T08:20:05;96687.00;;;8.86
32039;BMP280;18549;42.286;22.688;2022-12-29T08:22:32;96694.22;;;8.90
32039;BMP280;18549;42.286;22.688;2022-12-29T08:24:59;96687.44;;;8.95
32039;BMP280;18549;42.286;22.688;2022-12-29T08:27:26;96693.16;;;8.96
32039;BMP280;18549;42.286;22.688;2022-12-29T08:29:54;96680.06;;;8.94
32039;BMP280;18549;42.286;22.688;2022-12-29T08:32:21;96681.41;;;9.01
32039;BMP280;18549;42.286;22.688;2022-12-29T08:34:48;96689.59;;;9.03
32039;BMP280;18549;42.286;22.688;2022-12-29T08:37:15;96683.66;;;9.07
32039;BMP280;18549;42.286;22.688;2022-12-29T08:39:42;96678.72;;;9.07
32039;BMP280;18549;42.286;22.688;2022-12-29T08:42:09;96675.31;;;9.09
32039;BMP280;18549;42.286;22.688;2022-12-29T08:44:35;96677.63;;;9.12
32039;BMP280;18549;42.286;22.688;2022-12-29T08:47:04;96670.78;;;9.19
32039;BMP280;18549;42.286;22.688;2022-12-29T08:49:30;96671.34;;;9.25
32039;BMP280;18549;42.286;22.688;2022-12-29T08:52:01;96671.00;;;9.32
32039;BMP280;18549;42.286;22.688;2022-12-29T08:54:28;96661.66;;;9.39
32039;BMP280;18549;42.286;22.688;2022-12-29T08:56:54;96663.25;;;9.40
32039;BMP280;18549;42.286;22.688;2022-12-29T08:59:21;96660.47;;;9.47
32039;BMP280;18549;42.286;22.688;2022-12-29T09:01:48;96655.84;;;9.58
32039;BMP280;18549;42.286;22.688;2022-12-29T09:04:16;96644.22;;;9.60
32039;BMP280;18549;42.286;22.688;2022-12-29T09:06:43;96647.44;;;9.62
32039;BMP280;18549;42.286;22.688;2022-12-29T09:09:10;96651.03;;;9.55
32039;BMP280;18549;42.286;22.688;2022-12-29T09:11:37;96641.75;;;9.60
32039;BMP280;18549;42.286;22.688;2022-12-29T09:14:04;96640.75;;;9.64
32039;BMP280;18549;42.286;22.688;2022-12-29T09:16:34;96640.44;;;9.70
32039;BMP280;18549;42.286;22.688;2022-12-29T09:19:01;96639.00;;;9.66
32039;BMP280;18549;42.286;22.688;2022-12-29T09:21:29;96628.06;;;9.70
32039;BMP280;18549;42.286;22.688;2022-12-29T09:23:57;96624.47;;;9.77
32039;BMP280;18549;42.286;22.688;2022-12-29T09:26:23;96630.28;;;9.76
32039;BMP280;18549;42.286;22.688;2022-12-29T09:28:50;96626.81;;;9.80
32039;BMP280;18549;42.286;22.688;2022-12-29T09:31:17;96628.06;;;9.88
32039;BMP280;18549;42.286;22.688;2022-12-29T09:33:44;96627.84;;;9.94
32039;BMP280;18549;42.286;22.688;2022-12-29T09:36:10;96626.75;;;9.99
32039;BMP280;18549;42.286;22.688;2022-12-29T09:38:38;96628.06;;;10.06
32039;BMP280;18549;42.286;22.688;2022-12-29T09:41:12;96623.59;;;10.14
32039;BMP280;18549;42.286;22.688;2022-12-29T09:43:54;96614.06;;;10.23
32039;BMP280;18549;42.286;22.688;2022-12-29T09:46:25;96613.12;;;10.43
32039;BMP280;18549;42.286;22.688;2022-12-29T09:49:00;96609.63;;;10.47
32039;BMP280;18549;42.286;22.688;2022-12-29T09:51:31;96610.28;;;10.50
32039;BMP280;18549;42.286;22.688;2022-12-29T09:54:03;96602.56;;;10.56
32039;BMP280;18549;42.286;22.688;2022-12-29T09:56:37;96601.53;;;10.60
32039;BMP280;18549;42.286;22.688;2022-12-29T09:59:11;96593.72;;;10.67
32039;BMP280;18549;42.286;22.688;2022-12-29T10:01:44;96585.44;;;10.68
32039;BMP280;18549;42.286;22.688;2022-12-29T10:04:15;96580.31;;;10.71
32039;BMP280;18549;42.286;22.688;2022-12-29T10:06:46;96579.19;;;10.77
32039;BMP280;18549;42.286;22.688;2022-12-29T10:09:23;96573.06;;;10.84
32039;BMP280;18549;42.286;22.688;2022-12-29T10:12:01;96570.91;;;10.93
32039;BMP280;18549;42.286;22.688;2022-12-29T10:14:41;96567.97;;;11.02
32039;BMP280;18549;42.286;22.688;2022-12-29T10:17:22;96556.66;;;11.13
32039;BMP280;18549;42.286;22.688;2022-12-29T10:20:17;96563.56;;;11.23
32039;BMP280;18549;42.286;22.688;2022-12-29T10:23:06;96555.09;;;11.27
32039;BMP280;18549;42.286;22.688;2022-12-29T10:25:41;96552.84;;;11.38
32039;BMP280;18549;42.286;22.688;2022-12-29T10:28:18;96551.28;;;11.53
32039;BMP280;18549;42.286;22.688;2022-12-29T10:30:47;96557.38;;;11.62
32039;BMP280;18549;42.286;22.688;2022-12-29T10:33:18;96539.25;;;11.76
32039;BMP280;18549;42.286;22.688;2022-12-29T10:35:47;96541.94;;;11.86
32039;BMP280;18549;42.286;22.688;2022-12-29T10:38:22;96532.47;;;11.93
32039;BMP280;18549;42.286;22.688;2022-12-29T10:40:57;96526.16;;;12.03
32039;BMP280;18549;42.286;22.688;2022-12-29T10:43:27;96532.72;;;12.04
32039;BMP280;18549;42.286;22.688;2022-12-29T10:45:57;96533.91;;;12.12
32039;BMP280;18549;42.286;22.688;2022-12-29T10:48:27;96520.66;;;12.41
32039;BMP280;18549;42.286;22.688;2022-12-29T10:50:57;96527.06;;;12.45
32039;BMP280;18549;42.286;22.688;2022-12-29T10:53:27;96521.56;;;12.53
32039;BMP280;18549;42.286;22.688;2022-12-29T10:56:00;96514.84;;;12.69
32039;BMP280;18549;42.286;22.688;2022-12-29T10:58:28;96515.25;;;12.76
32039;BMP280;18549;42.286;22.688;2022-12-29T11:00:57;96516.00;;;12.91
32039;BMP280;18549;42.286;22.688;2022-12-29T11:03:41;96506.50;;;12.98
32039;BMP280;18549;42.286;22.688;2022-12-29T11:06:14;96502.75;;;13.05
32039;BMP280;18549;42.286;22.688;2022-12-29T11:08:50;96501.94;;;13.18
32039;BMP280;18549;42.286;22.688;2022-12-29T11:11:25;96503.44;;;13.34
32039;BMP280;18549;42.286;22.688;2022-12-29T11:13:57;96503.13;;;13.52
32039;BMP280;18549;42.286;22.688;2022-12-29T11:16:29;96487.84;;;13.71
32039;BMP280;18549;42.286;22.688;2022-12-29T11:18:57;96493.47;;;13.86
32039;BMP280;18549;42.286;22.688;2022-12-29T11:21:28;96481.31;;;13.94
32039;BMP280;18549;42.286;22.688;2022-12-29T11:23:58;96479.72;;;14.07
32039;BMP280;18549;42.286;22.688;2022-12-29T11:26:27;96476.94;;;14.12
32039;BMP280;18549;42.286;22.688;2022-12-29T11:29:16;96475.62;;;14.06
32039;BMP280;18549;42.286;22.688;2022-12-29T11:31:45;96469.22;;;14.02
32039;BMP280;18549;42.286;22.688;2022-12-29T11:34:20;96467.16;;;13.83
32039;BMP280;18549;42.286;22.688;2022-12-29T11:36:49;96473.53;;;13.74
32039;BMP280;18549;42.286;22.688;2022-12-29T11:39:26;96466.00;;;13.62
32039;BMP280;18549;42.286;22.688;2022-12-29T11:41:55;96462.84;;;13.46
32039;BMP280;18549;42.286;22.688;2022-12-29T11:44:23;96461.09;;;13.34
32039;BMP280;18549;42.286;22.688;2022-12-29T11:46:51;96460.53;;;13.17
32039;BMP280;18549;42.286;22.688;2022-12-29T11:49:20;96455.56;;;13.17
32039;BMP280;18549;42.286;22.688;2022-12-29T11:51:49;96453.34;;;13.13
32039;BMP280;18549;42.286;22.688;2022-12-29T11:54:19;96449.16;;;13.13
32039;BMP280;18549;42.286;22.688;2022-12-29T11:56:48;96449.34;;;13.10
32039;BMP280;18549;42.286;22.688;2022-12-29T11:59:38;96441.16;;;13.08
32039;BMP280;18549;42.286;22.688;2022-12-29T12:02:30;96452.66;;;12.97
32039;BMP280;18549;42.286;22.688;2022-12-29T12:05:05;96448.28;;;13.00
32039;BMP280;18549;42.286;22.688;2022-12-29T12:07:39;96441.97;;;13.09
32039;BMP280;18549;42.286;22.688;2022-12-29T12:10:13;96435.00;;;13.14
32039;BMP280;18549;42.286;22.688;2022-12-29T12:12:46;96431.81;;;13.12
32039;BMP280;18549;42.286;22.688;2022-12-29T12:15:19;96430.03;;;13.14
32039;BMP280;18549;42.286;22.688;2022-12-29T12:17:51;96420.44;;;13.21
32039;BMP280;18549;42.286;22.688;2022-12-29T12:20:22;96416.94;;;13.24
32039;BMP280;18549;42.286;22.688;2022-12-29T12:23:01;96418.34;;;13.28
32039;BMP280;18549;42.286;22.688;2022-12-29T12:25:37;96410.59;;;13.32
32039;BMP280;18549;42.286;22.688;2022-12-29T12:28:11;96418.41;;;13.40
32039;BMP280;18549;42.286;22.688;2022-12-29T12:30:44;96409.22;;;13.41
32039;BMP280;18549;42.286;22.688;2022-12-29T12:33:18;96408.03;;;13.46
32039;BMP280;18549;42.286;22.688;2022-12-29T12:35:57;96411.66;;;13.42
32039;BMP280;18549;42.286;22.688;2022-12-29T12:38:36;96407.16;;;13.47
32039;BMP280;18549;42.286;22.688;2022-12-29T12:41:09;96404.84;;;13.44
32039;BMP280;18549;42.286;22.688;2022-12-29T12:43:44;96405.56;;;13.46
32039;BMP280;18549;42.286;22.688;2022-12-29T12:46:38;96406.03;;;13.39
32039;BMP280;18549;42.286;22.688;2022-12-29T12:49:28;96411.22;;;13.36
32039;BMP280;18549;42.286;22.688;2022-12-29T12:52:07;96402.03;;;13.36
32039;BMP280;18549;42.286;22.688;2022-12-29T12:54:46;96402.25;;;13.33
32039;BMP280;18549;42.286;22.688;2022-12-29T12:57:28;96404.63;;;13.35
32039;BMP280;18549;42.286;22.688;2022-12-29T13:00:02;96391.28;;;13.36
32039;BMP280;18549;42.286;22.688;2022-12-29T13:02:53;96400.47;;;13.35
32039;BMP280;18549;42.286;22.688;2022-12-29T13:05:34;96395.47;;;13.35
32039;BMP280;18549;42.286;22.688;2022-12-29T13:08:25;96391.88;;;13.39
32039;BMP280;18549;42.286;22.688;2022-12-29T13:10:59;96391.19;;;13.37
32039;BMP280;18549;42.286;22.688;2022-12-29T13:13:53;96386.19;;;13.37
32039;BMP280;18549;42.286;22.688;2022-12-29T13:16:30;96384.91;;;13.32
32039;BMP280;18549;42.286;22.688;2022-12-29T13:19:03;96393.66;;;13.37
32039;BMP280;18549;42.286;22.688;2022-12-29T13:21:42;96388.87;;;13.34
32039;BMP280;18549;42.286;22.688;2022-12-29T13:24:15;96394.56;;;13.36
32039;BMP280;18549;42.286;22.688;2022-12-29T13:26:46;96390.09;;;13.41
32039;BMP280;18549;42.286;22.688;2022-12-29T13:29:18;96398.91;;;13.47
32039;BMP280;18549;42.286;22.688;2022-12-29T13:31:52;96390.81;;;13.43
32039;BMP280;18549;42.286;22.688;2022-12-29T13:34:30;96393.50;;;13.40
32039;BMP280;18549;42.286;22.688;2022-12-29T13:37:06;96406.13;;;13.37
32039;BMP280;18549;42.286;22.688;2022-12-29T13:39:37;96396.00;;;13.40
32039;BMP280;18549;42.286;22.688;2022-12-29T13:42:06;96400.06;;;13.41
32039;BMP280;18549;42.286;22.688;2022-12-29T13:44:38;96399.47;;;13.38
32039;BMP280;18549;42.286;22.688;2022-12-29T13:47:16;96404.44;;;13.38
32039;BMP280;18549;42.286;22.688;2022-12-29T13:49:50;96403.25;;;13.43
32039;BMP280;18549;42.286;22.688;2022-12-29T13:52:26;96402.34;;;13.44
32039;BMP280;18549;42.286;22.688;2022-12-29T13:55:01;96402.66;;;13.40
32039;BMP280;18549;42.286;22.688;2022-12-29T13:57:39;96412.53;;;13.41
32039;BMP280;18549;42.286;22.688;2022-12-29T14:00:14;96409.66;;;13.47
32039;BMP280;18549;42.286;22.688;2022-12-29T14:03:00;96396.16;;;13.37
32039;BMP280;18549;42.286;22.688;2022-12-29T14:05:31;96411.81;;;13.39
32039;BMP280;18549;42.286;22.688;2022-12-29T14:08:00;96400.97;;;13.40
32039;BMP280;18549;42.286;22.688;2022-12-29T14:10:30;96412.53;;;13.41
32039;BMP280;18549;42.286;22.688;2022-12-29T14:13:06;96406.66;;;13.42
32039;BMP280;18549;42.286;22.688;2022-12-29T14:15:38;96412.63;;;13.40
32039;BMP280;18549;42.286;22.688;2022-12-29T14:18:14;96418.41;;;13.40
32039;BMP280;18549;42.286;22.688;2022-12-29T14:20:53;96420.19;;;13.38
32039;BMP280;18549;42.286;22.688;2022-12-29T14:23:39;96420.38;;;13.35
32039;BMP280;18549;42.286;22.688;2022-12-29T14:26:12;96425.38;;;13.35
32039;BMP280;18549;42.286;22.688;2022-12-29T14:28:40;96428.53;;;13.37
32039;BMP280;18549;42.286;22.688;2022-12-29T14:31:34;96431.94;;;13.36
32039;BMP280;18549;42.286;22.688;2022-12-29T14:34:28;96439.34;;;13.24
32039;BMP280;18549;42.286;22.688;2022-12-29T14:36:57;96434.25;;;13.25